Time;durP1;ratioP1;P1;durP2;ratioP2;P2;SDS_P1;SDS_P2;PMS_P1;PMS_P2;Temp;Humidity;BMP_temperature;BMP_pressure;BME280_temperature;BME280_humidity;BME280_pressure;Samples;Min_cycle;Max_cycle;Signal;HPM_P1;HPM_P2
2022/10/15 00:00:27;;;;;;;;;;;;;;;;;;5094718;28;19999;-80
2022/10/15 00:02:53;;;;;;;;;;;;;;;;;;5094151;28;19916;-79
2022/10/15 00:05:19;;;;;;;;;;;;;;;;;;5076073;28;20353;-80
2022/10/15 00:07:45;;;;;;;;;;;;;;;;;;5094578;28;19912;-80
2022/10/15 00:10:11;;;;;;;;;;;;;;;;;;5094115;28;19908;-80
2022/10/15 00:12:36;;;;;;;;;;;;;;;;;;5094395;28;19919;-80
2022/10/15 00:15:02;;;;;;;;;;;;;;;;;;5094523;28;19908;-80
2022/10/15 00:17:28;;;;;;;;;;;;;;;;;;5094447;28;20417;-80
2022/10/15 00:19:54;;;;;;;;;;;;;;;;;;5076241;28;20298;-80
2022/10/15 00:22:20;;;;;;;;;;;;;;;;;;5076190;28;19908;-80
2022/10/15 00:24:46;;;;;;;;;;;;;;;;;;5093923;28;19960;-80
2022/10/15 00:27:12;;;;;;;;;;;;;;;;;;5094256;28;19970;-80
2022/10/15 00:29:38;;;;;;;;;;;;;;;;;;5094258;28;19908;-80
2022/10/15 00:32:04;;;;;;;;;;;;;;;;;;5093698;28;19965;-80
2022/10/15 00:34:30;;;;;;;;;;;;;;;;;;5094261;28;19912;-80
2022/10/15 00:36:56;;;;;;;;;;;;;;;;;;5094137;28;19908;-80
2022/10/15 00:39:22;;;;;;;;;;;;;;;;;;5075586;28;19908;-79
2022/10/15 00:41:48;;;;;;;;;;;;;;;;;;5075987;28;19908;-79
2022/10/15 00:44:14;;;;;;;;;;;;;;;;;;5094067;28;19908;-80
2022/10/15 00:46:40;;;;;;;;;;;;;;;;;;5093676;28;20007;-80
2022/10/15 00:49:06;;;;;;;;;;;;;;;;;;5075868;28;19908;-80
2022/10/15 00:51:31;;;;;;;;;;;;;;;;;;5094262;28;20382;-79
2022/10/15 00:53:57;;;;;;;;;;;;;;;;;;5093496;28;20376;-80
2022/10/15 00:56:23;;;;;;;;;;;;;;;;;;5093922;28;19909;-80
2022/10/15 00:58:49;;;;;;;;;;;;;;;;;;5075914;28;19908;-79
2022/10/15 01:01:15;;;;;;;;;;;;;;;;;;5075378;28;19915;-81
2022/10/15 01:03:41;;;;;;;;;;;;;;;;;;5094054;28;19951;-79
2022/10/15 01:06:07;;;;;;;;;;;;;;;;;;5093804;28;19998;-80
2022/10/15 01:08:33;;;;;;;;;;;;;;;;;;5093398;28;19916;-79
2022/10/15 01:10:59;;;;;;;;;;;;;;;;;;5093883;28;19915;-80
2022/10/15 01:13:25;;;;;;;;;;;;;;;;;;5093422;28;20283;-80
2022/10/15 01:15:51;;;;;;;;;;;;;;;;;;5098237;28;19915;-80
2022/10/15 01:18:17;;;;;;;;;;;;;;;;;;5097863;28;20361;-80
2022/10/15 01:20:43;;;;;;;;;;;;;;;;;;5079306;28;19915;-79
2022/10/15 01:23:09;;;;;;;;;;;;;;;;;;5079529;28;19939;-79
2022/10/15 01:25:35;;;;;;;;;;;;;;;;;;5098305;28;19948;-80
2022/10/15 01:28:01;;;;;;;;;;;;;;;;;;5097206;28;20271;-80
2022/10/15 01:30:27;;;;;;;;;;;;;;;;;;5097607;28;20284;-80
2022/10/15 01:32:53;;;;;;;;;;;;;;;;;;5097543;28;19947;-80
2022/10/15 01:35:19;;;;;;;;;;;;;;;;;;5097192;28;20364;-80
2022/10/15 01:37:45;;;;;;;;;;;;;;;;;;5097485;28;19915;-79
2022/10/15 01:40:11;;;;;;;;;;;;;;;;;;5097441;28;19908;-79
2022/10/15 01:42:37;;;;;;;;;;;;;;;;;;5097316;28;20407;-80
2022/10/15 01:45:03;;;;;;;;;;;;;;;;;;5097336;28;19950;-80
2022/10/15 01:47:29;;;;;;;;;;;;;;;;;;5097278;28;19950;-80
2022/10/15 01:49:55;;;;;;;;;;;;;;;;;;5096819;28;19912;-79
2022/10/15 01:52:21;;;;;;;;;;;;;;;;;;5096999;28;20023;-80
2022/10/15 01:54:47;;;;;;;;;;;;;;;;;;5097201;28;20411;-79
2022/10/15 01:57:13;;;;;;;;;;;;;;;;;;5096805;28;19908;-80
2022/10/15 01:59:39;;;;;;;;;;;;;;;;;;5097029;28;20353;-80
2022/10/15 02:02:05;;;;;;;;;;;;;;;;;;5078782;28;20280;-79
2022/10/15 02:04:30;;;;;;;;;;;;;;;;;;5096540;28;19995;-79
2022/10/15 02:06:56;;;;;;;;;;;;;;;;;;5096888;28;19909;-79
2022/10/15 02:09:22;;;;;;;;;;;;;;;;;;5096856;28;19914;-80
2022/10/15 02:11:48;;;;;;;;;;;;;;;;;;5096364;28;19908;-80
2022/10/15 02:14:14;;;;;;;;;;;;;;;;;;5096728;28;19919;-80
2022/10/15 02:16:40;;;;;;;;;;;;;;;;;;5096464;28;20006;-80
2022/10/15 02:19:06;;;;;;;;;;;;;;;;;;5096859;28;19915;-80
2022/10/15 02:21:32;;;;;;;;;;;;;;;;;;5078465;28;19908;-80
2022/10/15 02:23:58;;;;;;;;;;;;;;;;;;5096370;28;19934;-79
2022/10/15 02:26:25;;;;;;;;;;;;;;;;;;5077978;28;19985;-80
2022/10/15 02:28:51;;;;;;;;;;;;;;;;;;5096560;28;19908;-80
2022/10/15 02:31:17;;;;;;;;;;;;;;;;;;5077848;28;20002;-80
2022/10/15 02:33:42;;;;;;;;;;;;;;;;;;5096453;28;19924;-80
2022/10/15 02:36:08;;;;;;;;;;;;;;;;;;5097017;28;19999;-80
2022/10/15 02:38:34;;;;;;;;;;;;;;;;;;5095898;28;19919;-79
2022/10/15 02:41:00;;;;;;;;;;;;;;;;;;5096430;28;20363;-80
2022/10/15 02:43:26;;;;;;;;;;;;;;;;;;5096164;28;20328;-80
2022/10/15 02:45:52;;;;;;;;;;;;;;;;;;5095888;28;20276;-80
2022/10/15 02:48:18;;;;;;;;;;;;;;;;;;5096104;28;19955;-80
2022/10/15 02:50:44;;;;;;;;;;;;;;;;;;5096163;28;19931;-80
2022/10/15 02:53:10;;;;;;;;;;;;;;;;;;5095423;28;20388;-80
2022/10/15 02:55:36;;;;;;;;;;;;;;;;;;5095974;28;20292;-80
2022/10/15 02:58:02;;;;;;;;;;;;;;;;;;5095970;28;20003;-80
2022/10/15 03:00:28;;;;;;;;;;;;;;;;;;5095519;28;19990;-80
2022/10/15 03:02:55;;;;;;;;;;;;;;;;;;5077737;28;19908;-80
2022/10/15 03:05:20;;;;;;;;;;;;;;;;;;5095855;28;19908;-80
2022/10/15 03:07:46;;;;;;;;;;;;;;;;;;5095344;28;19915;-80
2022/10/15 03:10:12;;;;;;;;;;;;;;;;;;5095887;28;19908;-80
2022/10/15 03:12:38;;;;;;;;;;;;;;;;;;5095518;28;19953;-80
2022/10/15 03:15:04;;;;;;;;;;;;;;;;;;5095143;28;20364;-80
2022/10/15 03:17:30;;;;;;;;;;;;;;;;;;5095620;28;20395;-80
2022/10/15 03:19:56;;;;;;;;;;;;;;;;;;5095137;28;20364;-80
2022/10/15 03:22:22;;;;;;;;;;;;;;;;;;5095380;28;20275;-80
2022/10/15 03:24:48;;;;;;;;;;;;;;;;;;5095375;28;19908;-80
2022/10/15 03:27:14;;;;;;;;;;;;;;;;;;5076820;28;19912;-80
2022/10/15 03:29:40;;;;;;;;;;;;;;;;;;5077053;28;19930;-80
2022/10/15 03:32:06;;;;;;;;;;;;;;;;;;5095205;28;19915;-80
2022/10/15 03:34:32;;;;;;;;;;;;;;;;;;5076621;28;20257;-80
2022/10/15 03:36:58;;;;;;;;;;;;;;;;;;5076224;28;19958;-80
2022/10/15 03:39:24;;;;;;;;;;;;;;;;;;5076930;28;19916;-79
2022/10/15 03:41:50;;;;;;;;;;;;;;;;;;5094710;28;19908;-79
2022/10/15 03:44:16;;;;;;;;;;;;;;;;;;5076870;28;19915;-79
2022/10/15 03:46:42;;;;;;;;;;;;;;;;;;5095064;28;20287;-79
2022/10/15 03:49:08;;;;;;;;;;;;;;;;;;5076500;28;20269;-79
2022/10/15 03:51:35;;;;;;;;;;;;;;;;;;5094720;28;20013;-78
2022/10/15 03:54:01;;;;;;;;;;;;;;;;;;5076719;28;19916;-79
2022/10/15 03:56:27;;;;;;;;;;;;;;;;;;5094501;28;19908;-79
2022/10/15 03:58:53;;;;;;;;;;;;;;;;;;5094783;28;19955;-79
2022/10/15 04:01:19;;;;;;;;;;;;;;;;;;5094810;28;19908;-79
2022/10/15 04:03:45;;;;;;;;;;;;;;;;;;5094347;28;19955;-79
2022/10/15 04:06:10;;;;;;;;;;;;;;;;;;5094704;28;20319;-79
2022/10/15 04:08:36;;;;;;;;;;;;;;;;;;5094992;28;19915;-79
2022/10/15 04:11:02;;;;;;;;;;;;;;;;;;5076151;28;19966;-79
2022/10/15 04:13:28;;;;;;;;;;;;;;;;;;5095230;28;19916;-79
2022/10/15 04:15:54;;;;;;;;;;;;;;;;;;5097031;28;19912;-79
2022/10/15 04:18:20;;;;;;;;;;;;;;;;;;5095472;28;19909;-79
2022/10/15 04:20:46;;;;;;;;;;;;;;;;;;5094434;28;19999;-79
2022/10/15 04:23:12;;;;;;;;;;;;;;;;;;5094070;28;19935;-79
2022/10/15 04:25:39;;;;;;;;;;;;;;;;;;5076168;28;19908;-79
2022/10/15 04:28:04;;;;;;;;;;;;;;;;;;5094350;28;19912;-80
2022/10/15 04:30:30;;;;;;;;;;;;;;;;;;5094164;28;19915;-79
2022/10/15 04:32:56;;;;;;;;;;;;;;;;;;5094153;28;19916;-80
2022/10/15 04:35:22;;;;;;;;;;;;;;;;;;5076126;28;19947;-79
2022/10/15 04:37:48;;;;;;;;;;;;;;;;;;5093980;28;19915;-79
2022/10/15 04:40:14;;;;;;;;;;;;;;;;;;5094099;28;20382;-79
2022/10/15 04:42:40;;;;;;;;;;;;;;;;;;5076044;28;19915;-79
2022/10/15 04:45:06;;;;;;;;;;;;;;;;;;5093799;28;20272;-79
2022/10/15 04:47:32;;;;;;;;;;;;;;;;;;5093870;28;20012;-79
2022/10/15 04:49:58;;;;;;;;;;;;;;;;;;5093970;28;19908;-79
2022/10/15 04:52:24;;;;;;;;;;;;;;;;;;5093413;28;19935;-78
2022/10/15 04:54:50;;;;;;;;;;;;;;;;;;5093987;28;19909;-79
2022/10/15 04:57:16;;;;;;;;;;;;;;;;;;5093976;28;19947;-78
2022/10/15 04:59:43;;;;;;;;;;;;;;;;;;5093621;28;20409;-79
2022/10/15 05:02:09;;;;;;;;;;;;;;;;;;5075764;28;19912;-79
2022/10/15 05:04:35;;;;;;;;;;;;;;;;;;5093880;28;19919;-79
2022/10/15 05:07:01;;;;;;;;;;;;;;;;;;5093488;28;19954;-79
2022/10/15 05:09:27;;;;;;;;;;;;;;;;;;5094123;28;19908;-79
2022/10/15 05:11:54;;;;;;;;;;;;;;;;;;5093704;28;19915;-79
2022/10/15 05:14:20;;;;;;;;;;;;;;;;;;5093309;28;20361;-79
2022/10/15 05:16:46;;;;;;;;;;;;;;;;;;5094036;28;19996;-79
2022/10/15 05:19:12;;;;;;;;;;;;;;;;;;5093753;28;19908;-79
2022/10/15 05:21:38;;;;;;;;;;;;;;;;;;5093316;28;20378;-79
2022/10/15 05:24:04;;;;;;;;;;;;;;;;;;5093713;28;19964;-79
2022/10/15 05:26:31;;;;;;;;;;;;;;;;;;5093258;28;19931;-79
2022/10/15 05:28:57;;;;;;;;;;;;;;;;;;5094738;28;19916;-79
2022/10/15 05:31:23;;;;;;;;;;;;;;;;;;5075555;28;19909;-79
2022/10/15 05:33:49;;;;;;;;;;;;;;;;;;5093099;28;19969;-79
2022/10/15 05:36:18;;;;;;;;;;;;;;;;;;5075473;28;19912;-78
2022/10/15 05:38:44;;;;;;;;;;;;;;;;;;5093649;28;19908;-78
2022/10/15 05:41:10;;;;;;;;;;;;;;;;;;5093087;28;19908;-78
2022/10/15 05:43:35;;;;;;;;;;;;;;;;;;5093464;28;19908;-79
2022/10/15 05:46:01;;;;;;;;;;;;;;;;;;5093942;28;20394;-79
2022/10/15 05:48:27;;;;;;;;;;;;;;;;;;5093182;28;19908;-79
2022/10/15 05:50:53;;;;;;;;;;;;;;;;;;5093471;28;19909;-79
2022/10/15 05:53:19;;;;;;;;;;;;;;;;;;5075120;28;20407;-80
2022/10/15 05:55:45;;;;;;;;;;;;;;;;;;5093254;28;20382;-80
2022/10/15 05:58:11;;;;;;;;;;;;;;;;;;5093430;28;19908;-80
2022/10/15 06:00:38;;;;;;;;;;;;;;;;;;5095284;28;19915;-79
2022/10/15 06:03:04;;;;;;;;;;;;;;;;;;5096675;28;20410;-80
2022/10/15 06:05:30;;;;;;;;;;;;;;;;;;5097032;28;19912;-79
2022/10/15 06:07:56;;;;;;;;;;;;;;;;;;5096883;28;19915;-79
2022/10/15 06:10:22;;;;;;;;;;;;;;;;;;5096447;28;19939;-80
2022/10/15 06:12:49;;;;;;;;;;;;;;;;;;5078563;28;19916;-80
2022/10/15 06:15:15;;;;;;;;;;;;;;;;;;5096878;28;19919;-79
2022/10/15 06:17:41;;;;;;;;;;;;;;;;;;5078160;28;20280;-80
2022/10/15 06:20:07;;;;;;;;;;;;;;;;;;5078598;28;20337;-79
2022/10/15 06:22:33;;;;;;;;;;;;;;;;;;5096603;28;19908;-80
2022/10/15 06:24:58;;;;;;;;;;;;;;;;;;5078045;28;19921;-80
2022/10/15 06:27:24;;;;;;;;;;;;;;;;;;5078580;28;20028;-80
2022/10/15 06:29:50;;;;;;;;;;;;;;;;;;5077963;28;19908;-80
2022/10/15 06:32:16;;;;;;;;;;;;;;;;;;5096343;28;19916;-80
2022/10/15 06:34:42;;;;;;;;;;;;;;;;;;5096570;28;19951;-78
2022/10/15 06:37:08;;;;;;;;;;;;;;;;;;5095975;28;19908;-78
2022/10/15 06:39:34;;;;;;;;;;;;;;;;;;5096444;28;19919;-78
2022/10/15 06:42:00;;;;;;;;;;;;;;;;;;5096207;28;19908;-78
2022/10/15 06:44:26;;;;;;;;;;;;;;;;;;5100459;28;19909;-80
2022/10/15 06:46:52;;;;;;;;;;;;;;;;;;5078285;28;19908;-80
2022/10/15 06:49:18;;;;;;;;;;;;;;;;;;5096649;28;19947;-80
2022/10/15 06:51:44;;;;;;;;;;;;;;;;;;5095532;28;19915;-80
2022/10/15 06:54:10;;;;;;;;;;;;;;;;;;5095927;28;20360;-80
2022/10/15 06:56:36;;;;;;;;;;;;;;;;;;5096103;28;20280;-80
2022/10/15 06:59:02;;;;;;;;;;;;;;;;;;5095503;28;20279;-80
2022/10/15 07:01:28;;;;;;;;;;;;;;;;;;5095804;28;19908;-80
2022/10/15 07:03:54;;;;;;;;;;;;;;;;;;5095860;28;20019;-80
2022/10/15 07:06:20;;;;;;;;;;;;;;;;;;5095371;28;20280;-80
2022/10/15 07:08:46;;;;;;;;;;;;;;;;;;5095695;28;20288;-80
2022/10/15 07:11:11;;;;;;;;;;;;;;;;;;5095623;28;19909;-81
2022/10/15 07:13:38;;;;;;;;;;;;;;;;;;5095252;28;20075;-81
2022/10/15 07:16:04;;;;;;;;;;;;;;;;;;5095614;28;19908;-80
2022/10/15 07:18:30;;;;;;;;;;;;;;;;;;5095596;28;19908;-80
2022/10/15 07:20:56;;;;;;;;;;;;;;;;;;5095142;28;20326;-80
2022/10/15 07:23:22;;;;;;;;;;;;;;;;;;5077291;28;19912;-80
2022/10/15 07:25:47;;;;;;;;;;;;;;;;;;5077237;28;19947;-80
2022/10/15 07:28:13;;;;;;;;;;;;;;;;;;5094998;28;20012;-80
2022/10/15 07:30:39;;;;;;;;;;;;;;;;;;5095333;28;19908;-80
2022/10/15 07:33:05;;;;;;;;;;;;;;;;;;5094787;28;19924;-80
2022/10/15 07:35:32;;;;;;;;;;;;;;;;;;5095310;28;19908;-79
2022/10/15 07:37:58;;;;;;;;;;;;;;;;;;5096066;28;19934;-79
2022/10/15 07:40:24;;;;;;;;;;;;;;;;;;5094882;28;19912;-79
2022/10/15 07:42:50;;;;;;;;;;;;;;;;;;5094980;28;19912;-79
2022/10/15 07:45:16;;;;;;;;;;;;;;;;;;5094980;28;19915;-79
2022/10/15 07:47:42;;;;;;;;;;;;;;;;;;5076321;28;20371;-80
2022/10/15 07:50:08;;;;;;;;;;;;;;;;;;5095000;28;20311;-79
2022/10/15 07:52:34;;;;;;;;;;;;;;;;;;5076478;28;19947;-79
2022/10/15 07:55:31;;;;;;;;;;;;;;;;;;5103644;27;19913;-79
2022/10/15 07:57:57;;;;;;;;;;;;;;;;;;5071169;28;19912;-80
2022/10/15 08:00:23;;;;;;;;;;;;;;;;;;5071151;28;19930;-80
2022/10/15 08:02:49;;;;;;;;;;;;;;;;;;5070658;28;20373;-80
2022/10/15 08:05:15;;;;;;;;;;;;;;;;;;5070972;28;19916;-78
2022/10/15 08:09:05;;;;;;;;;;;;;;;;;;5103548;27;19920;-79
2022/10/15 08:11:31;;;;;;;;;;;;;;;;;;5071179;28;19913;-79
2022/10/15 08:13:57;;;;;;;;;;;;;;;;;;5070976;28;20005;-79
2022/10/15 08:18:34;;;;;;;;;;;;;;;;;;5104426;27;19920;-80
2022/10/15 08:21:00;;;;;;;;;;;;;;;;;;5071189;28;19913;-79
2022/10/15 08:23:26;;;;;;;;;;;;;;;;;;5070969;28;20250;-80
2022/10/15 08:25:52;;;;;;;;;;;;;;;;;;5071691;28;19915;-80
2022/10/15 08:28:17;;;;;;;;;;;;;;;;;;5071069;28;20369;-80
2022/10/15 08:30:43;;;;;;;;;;;;;;;;;;5070835;28;20387;-80
2022/10/15 08:33:09;;;;;;;;;;;;;;;;;;5070939;28;20257;-80
2022/10/15 08:36:57;;;;;;;;;;;;;;;;;;5103674;27;19920;-79
2022/10/15 08:39:23;;;;;;;;;;;;;;;;;;5071038;28;19913;-79
2022/10/15 08:41:49;;;;;;;;;;;;;;;;;;5069893;28;20415;-79
2022/10/15 08:44:15;;;;;;;;;;;;;;;;;;5070543;28;20308;-80
2022/10/15 08:46:41;;;;;;;;;;;;;;;;;;5069819;28;19996;-80
2022/10/15 08:54:04;;;;;;;;;;;;;;;;;;5103590;27;19919;-79
2022/10/15 08:56:30;;;;;;;;;;;;;;;;;;5071181;28;19913;-78
2022/10/15 08:58:56;;;;;;;;;;;;;;;;;;5070978;28;19909;-78
2022/10/15 09:02:44;;;;;;;;;;;;;;;;;;5103693;27;20423;-79
2022/10/15 09:05:10;;;;;;;;;;;;;;;;;;5070766;28;19913;-79
2022/10/15 09:07:36;;;;;;;;;;;;;;;;;;5071028;28;19999;-80
2022/10/15 09:11:26;;;;;;;;;;;;;;;;;;5103801;27;19920;-81
2022/10/15 09:19:10;;;;;;;;;;;;;;;;;;5103749;27;19913;-79
2022/10/15 09:22:18;;;;;;;;;;;;;;;;;;5104065;27;19913;-79
2022/10/15 09:24:43;;;;;;;;;;;;;;;;;;5071113;28;19912;-79
2022/10/15 09:27:30;;;;;;;;;;;;;;;;;;5103690;27;19912;-80
2022/10/15 09:34:36;;;;;;;;;;;;;;;;;;5103520;27;19917;-80
2022/10/15 09:41:52;;;;;;;;;;;;;;;;;;5103408;27;19913;-80
2022/10/15 09:44:18;;;;;;;;;;;;;;;;;;5070945;28;19954;-81
2022/10/15 09:46:44;;;;;;;;;;;;;;;;;;5071094;28;19909;-82
2022/10/15 09:51:24;;;;;;;;;;;;;;;;;;5103854;27;19913;-80
2022/10/15 09:53:50;;;;;;;;;;;;;;;;;;5069847;28;20392;-80
2022/10/15 09:56:16;;;;;;;;;;;;;;;;;;5071083;28;19908;-80
2022/10/15 09:59:05;;;;;;;;;;;;;;;;;;5104063;27;19912;-80
2022/10/15 10:01:31;;;;;;;;;;;;;;;;;;5070922;28;19913;-80
2022/10/15 10:05:02;;;;;;;;;;;;;;;;;;5103895;27;20241;-80
2022/10/15 10:07:28;;;;;;;;;;;;;;;;;;5069949;28;19913;-80
2022/10/15 10:12:20;;;;;;;;;;;;;;;;;;5104063;27;19970;-83
2022/10/15 10:14:46;;;;;;;;;;;;;;;;;;5071392;28;20376;-80
2022/10/15 10:19:42;;;;;;;;;;;;;;;;;;5135332;27;19919;-82
2022/10/15 10:22:07;;;;;;;;;;;;;;;;;;5152535;27;19911;-80
2022/10/15 10:24:33;;;;;;;;;;;;;;;;;;5152824;27;19954;-80
2022/10/15 10:26:59;;;;;;;;;;;;;;;;;;5153032;27;19919;-80
2022/10/15 10:29:25;;;;;;;;;;;;;;;;;;5152676;27;19913;-81
2022/10/15 10:31:52;;;;;;;;;;;;;;;;;;5152821;27;19907;-81
2022/10/15 10:34:18;;;;;;;;;;;;;;;;;;5152702;27;20375;-80
2022/10/15 10:36:44;;;;;;;;;;;;;;;;;;5133773;27;20027;-80
2022/10/15 10:39:12;;;;;;;;;;;;;;;;;;5152495;27;19923;-80
2022/10/15 10:41:38;;;;;;;;;;;;;;;;;;5152612;27;19952;-80
2022/10/15 10:44:04;;;;;;;;;;;;;;;;;;5152111;27;19911;-81
2022/10/15 10:46:30;;;;;;;;;;;;;;;;;;5152508;27;20114;-81
2022/10/15 10:48:57;;;;;;;;;;;;;;;;;;5152464;27;19908;-82
2022/10/15 10:51:23;;;;;;;;;;;;;;;;;;5151910;27;20283;-81
2022/10/15 10:53:49;;;;;;;;;;;;;;;;;;5152374;27;20377;-81
2022/10/15 10:56:15;;;;;;;;;;;;;;;;;;5152259;27;19907;-81
2022/10/15 10:58:42;;;;;;;;;;;;;;;;;;5151887;27;19919;-80
2022/10/15 11:01:08;;;;;;;;;;;;;;;;;;5152424;27;20385;-81
2022/10/15 11:03:34;;;;;;;;;;;;;;;;;;5152116;27;19954;-80
2022/10/15 11:06:00;;;;;;;;;;;;;;;;;;5133047;27;19912;-81
2022/10/15 11:08:26;;;;;;;;;;;;;;;;;;5152022;27;20275;-81
2022/10/15 11:11:03;;;;;;;;;;;;;;;;;;5104265;27;19996;-80
2022/10/15 11:13:29;;;;;;;;;;;;;;;;;;5070808;28;19955;-82
2022/10/15 11:15:54;;;;;;;;;;;;;;;;;;5071117;28;20399;-82
2022/10/15 11:18:20;;;;;;;;;;;;;;;;;;5070832;28;20369;-81
2022/10/15 11:20:46;;;;;;;;;;;;;;;;;;5071160;28;19909;-82
2022/10/15 11:23:12;;;;;;;;;;;;;;;;;;5070003;28;20343;-81
2022/10/15 11:25:38;;;;;;;;;;;;;;;;;;5070760;28;19913;-81
2022/10/15 11:28:04;;;;;;;;;;;;;;;;;;5071098;28;19909;-81
2022/10/15 11:30:30;;;;;;;;;;;;;;;;;;5069534;28;19923;-80
2022/10/15 11:32:56;;;;;;;;;;;;;;;;;;5070823;28;19909;-81
2022/10/15 11:35:22;;;;;;;;;;;;;;;;;;5069378;28;20001;-81
2022/10/15 11:37:48;;;;;;;;;;;;;;;;;;5070821;28;19909;-80
2022/10/15 11:40:14;;;;;;;;;;;;;;;;;;5070282;28;20307;-80
2022/10/15 11:42:40;;;;;;;;;;;;;;;;;;5069353;28;19908;-81
2022/10/15 11:45:06;;;;;;;;;;;;;;;;;;5070624;28;19913;-81
2022/10/15 11:47:32;;;;;;;;;;;;;;;;;;5068864;28;19909;-80
2022/10/15 11:49:58;;;;;;;;;;;;;;;;;;5070404;28;19916;-81
2022/10/15 11:52:24;;;;;;;;;;;;;;;;;;5069209;28;20369;-81
2022/10/15 11:54:50;;;;;;;;;;;;;;;;;;5069066;28;20412;-81
2022/10/15 11:57:16;;;;;;;;;;;;;;;;;;5070327;28;20292;-81
2022/10/15 11:59:42;;;;;;;;;;;;;;;;;;5070257;28;19909;-80
2022/10/15 12:02:08;;;;;;;;;;;;;;;;;;5069888;28;19908;-80
2022/10/15 12:04:34;;;;;;;;;;;;;;;;;;5070260;28;19908;-80
2022/10/15 12:07:00;;;;;;;;;;;;;;;;;;5070069;28;19969;-80
2022/10/15 12:09:26;;;;;;;;;;;;;;;;;;5069502;28;19982;-81
2022/10/15 12:11:52;;;;;;;;;;;;;;;;;;5069961;28;19915;-80
2022/10/15 12:14:18;;;;;;;;;;;;;;;;;;5069945;28;19909;-80
2022/10/15 12:16:44;;;;;;;;;;;;;;;;;;5069515;28;19922;-80
2022/10/15 12:19:13;;;;;;;139.27;129.98;;;;;;;;;;5068625;28;20373;-80
2022/10/15 12:21:39;;;;;;;;;;;;;;;;;;5060238;28;20032;-80
2022/10/15 12:24:09;;;;;;;;;;;;;;;;;;5056476;28;19911;-80
2022/10/15 12:26:35;;;;;;;;;;;;;;;;;;5055262;28;19909;-80
2022/10/15 12:29:01;;;;;;;;;;;;;;;;;;5055951;28;19962;-80
2022/10/15 12:31:27;;;;;;;;;;;;;;;;;;5056942;28;19910;-81
2022/10/15 12:33:53;;;;;;;;;;;;;;;;;;5056482;28;19909;-80
2022/10/15 12:36:19;;;;;;;;;;;;;;;;;;5055984;28;20406;-79
2022/10/15 12:38:45;;;;;;;;;;;;;;;;;;5056313;28;20293;-79
2022/10/15 12:41:11;;;;;;;;;;;;;;;;;;5056251;28;19904;-80
2022/10/15 12:43:37;;;;;;;;;;;;;;;;;;5055799;28;19939;-80
2022/10/15 12:46:02;;;;;;;;;;;;;;;;;;5056154;28;19905;-80
2022/10/15 12:48:29;;;;;;;;;;;;;;;;;;5056110;28;19905;-80
2022/10/15 12:50:55;;;;;;;;;;;;;;;;;;5055649;28;19912;-80
2022/10/15 12:53:21;;;;;;;;;;;;;;;;;;5056065;28;19905;-80
2022/10/15 12:55:47;;;;;;;;;;;;;;;;;;5056071;28;19948;-80
2022/10/15 12:58:13;;;;;;;;;;;;;;;;;;5055622;28;19916;-80
2022/10/15 13:00:39;;;;;;;;;;;;;;;;;;5056042;28;20357;-80
2022/10/15 13:03:05;;;;;;;;;;;;;;;;;;5055980;28;20411;-80
2022/10/15 13:05:31;;;;;;;;;;;;;;;;;;5055362;28;19999;-80
2022/10/15 13:07:57;;;;;;;;;;;;;;;;;;5056003;28;19904;-80
2022/10/15 13:10:23;;;;;;;;;;;;;;;;;;5055658;28;19917;-80
2022/10/15 13:12:49;;;;;;;;;;;;;;;;;;5055174;28;19911;-80
2022/10/15 13:15:15;;;;;;;;;;;;;;;;;;5055616;28;19904;-81
2022/10/15 13:17:41;;;;;;;;;;;;;;;;;;5055928;28;19908;-80
2022/10/15 13:20:07;;;;;;;;;;;;;;;;;;5055228;28;20383;-80
2022/10/15 13:22:33;;;;;;;;;;;;;;;;;;5055458;28;19930;-80
2022/10/15 13:24:59;;;;;;;;;;;;;;;;;;5053720;28;20008;-80
2022/10/15 13:27:25;;;;;;;;;;;;;;;;;;5055508;28;19911;-80
2022/10/15 13:29:51;;;;;;;;;;;;;;;;;;5055392;28;20015;-80
2022/10/15 13:32:17;;;;;;;;;;;;;;;;;;5052897;28;19908;-80
2022/10/15 13:34:43;;;;;;;;;;;;;;;;;;5054974;28;19912;-80
2022/10/15 13:37:09;;;;;;;;;;;;;;;;;;5055310;28;20365;-79
2022/10/15 13:39:35;;;;;;;;;;;;;;;;;;5054751;28;20353;-79
2022/10/15 13:42:00;;;;;;;;;;;;;;;;;;5053863;28;19908;-80
2022/10/15 13:44:26;;;;;;;;;;;;;;;;;;5055122;28;19904;-80
2022/10/15 13:46:52;;;;;;;;;;;;;;;;;;5053304;28;19943;-80
2022/10/15 13:49:18;;;;;;;;;;;;;;;;;;5054853;28;19913;-80
2022/10/15 13:51:44;;;;;;;;;;;;;;;;;;5055111;28;19905;-80
2022/10/15 13:54:10;;;;;;;;;;;;;;;;;;5054353;28;19904;-80
2022/10/15 13:56:36;;;;;;;;;;;;;;;;;;5054766;28;19905;-80
2022/10/15 13:59:02;;;;;;;;;;;;;;;;;;5054829;28;20387;-79
2022/10/15 14:01:28;;;;;;;;;;;;;;;;;;5054348;28;19928;-79
2022/10/15 14:03:54;;;;;;;;;;;;;;;;;;5054680;28;19950;-79
2022/10/15 14:06:20;;;;;;;;;;;;;;;;;;5054557;28;19912;-79
2022/10/15 14:08:46;;;;;;;;;;;;;;;;;;5054168;28;19982;-79
2022/10/15 14:11:12;;;;;;;;;;;;;;;;;;5054616;28;19905;-80
2022/10/15 14:13:38;;;;;;;;;;;;;;;;;;5054972;28;20356;-80
2022/10/15 14:16:04;;;;;;;;;;;;;;;;;;5052994;28;19914;-80
2022/10/15 14:18:30;;;;;;;;;;;;;;;;;;5054474;28;19940;-80
2022/10/15 14:20:56;;;;;;;;;;;;;;;;;;5054810;28;19905;-80
2022/10/15 14:23:22;;;;;;;;;;;;;;;;;;5052643;28;19905;-81
2022/10/15 14:25:48;;;;;;;;;;;;;;;;;;5054281;28;19919;-80
2022/10/15 14:28:14;;;;;;;;;;;;;;;;;;5053842;28;20379;-81
2022/10/15 14:30:43;;;;;;;;;;;;;;;;;;5054145;28;19913;-81
2022/10/15 14:33:08;;;;;;;;;;;;;;;;;;5054271;28;19912;-81
2022/10/15 14:35:34;;;;;;;;;;;;;;;;;;5053736;28;19905;-81
2022/10/15 14:38:00;;;;;;;;;;;;;;;;;;5054357;28;19949;-80
2022/10/15 14:40:26;;;;;;;;;;;;;;;;;;5054242;28;19904;-79
2022/10/15 14:42:52;;;;;;;;;;;;;;;;;;5053696;28;19912;-80
2022/10/15 14:45:19;;;;;;;;;;;;;;;;;;5053940;28;19905;-81
2022/10/15 14:47:45;;;;;;;;;;;;;;;;;;5053952;28;19905;-81
2022/10/15 14:50:11;;;;;;;;;;;;;;;;;;5053707;28;19920;-81
2022/10/15 14:52:37;;;;;;;;;;;;;;;;;;5052548;28;19955;-81
2022/10/15 14:55:03;;;;;;;;;;;;;;;;;;5053851;28;19908;-80
2022/10/15 14:57:29;;;;;;;;;;;;;;;;;;5052224;28;19955;-80
2022/10/15 14:59:55;;;;;;;;;;;;;;;;;;5053748;28;19904;-80
2022/10/15 15:02:21;;;;;;;;;;;;;;;;;;5053758;28;19911;-79
2022/10/15 15:04:46;;;;;;;;;;;;;;;;;;5053402;28;19904;-79
2022/10/15 15:07:12;;;;;;;;;;;;;;;;;;5053731;28;19905;-79
2022/10/15 15:09:40;;;;;;;;;;;;;;;;;;5053589;28;19956;-79
2022/10/15 15:12:06;;;;;;;;;;;;;;;;;;5052036;28;19904;-80
2022/10/15 15:14:32;;;;;;;;;;;;;;;;;;5053616;28;20396;-79
2022/10/15 15:16:58;;;;;;;;;;;;;;;;;;5054004;28;20270;-79
2022/10/15 15:19:24;;;;;;;;;;;;;;;;;;5053285;28;19909;-77
2022/10/15 15:21:50;;;;;;;;;;;;;;;;;;5053522;28;19916;-76
2022/10/15 15:24:16;;;;;;;;;;;;;;;;;;5053740;28;19948;-77
2022/10/15 15:26:42;;;;;;;;;;;;;;;;;;5053217;28;19911;-79
2022/10/15 15:29:08;;;;;;;;;;;;;;;;;;5053528;28;19939;-79
2022/10/15 15:31:34;;;;;;;;;;;;;;;;;;5053133;28;20489;-79
2022/10/15 15:34:00;;;;;;;;;;;;;;;;;;5053501;28;20258;-78
2022/10/15 15:36:26;;;;;;;;;;;;;;;;;;5053485;28;19927;-79
2022/10/15 15:38:52;;;;;;;;;;;;;;;;;;5051835;28;19905;-79
2022/10/15 15:41:18;;;;;;;;;;;;;;;;;;5053435;28;19958;-79
2022/10/15 15:43:44;;;;;;;;;;;;;;;;;;5053480;28;19908;-79
2022/10/15 15:46:10;;;;;;;;;;;;;;;;;;5051708;28;19991;-78
2022/10/15 15:48:36;;;;;;;;;;;;;;;;;;5052086;28;19948;-78
2022/10/15 15:51:02;;;;;;;;;;;;;;;;;;5053204;28;19913;-78
2022/10/15 15:53:28;;;;;;;;;;;;;;;;;;5052992;28;20357;-78
2022/10/15 15:55:54;;;;;;;;;;;;;;;;;;5053947;28;19905;-79
2022/10/15 15:58:49;;;;;;;;;;;;;;;;;;5104257;27;19920;-78
2022/10/15 16:03:30;;;;;;;;;;;;;;;;;;5134818;27;20328;-80
2022/10/15 16:05:56;;;;;;;;;;;;;;;;;;5153147;27;19918;-80
2022/10/15 16:10:13;;;;;;;;;;;;;;;;;;5135008;27;19917;-80
2022/10/15 16:12:39;;;;;;;;;;;;;;;;;;5153246;27;19911;-78
2022/10/15 16:15:05;;;;;;;;;;;;;;;;;;5152723;27;19907;-79
2022/10/15 16:18:02;;;;;;;;;;;;;;;;;;5104069;27;19913;-79
2022/10/15 16:20:28;;;;;;;;;;;;;;;;;;5071437;28;19919;-79
2022/10/15 16:27:44;;;;;;;;;;;;;;;;;;5103804;27;19920;-78
2022/10/15 16:30:10;;;;;;;;;;;;;;;;;;5071556;28;19913;-78
2022/10/15 16:32:36;;;;;;;;;;;;;;;;;;5071231;28;20353;-79
2022/10/15 16:35:02;;;;;;;;;;;;;;;;;;5070835;28;19978;-78
2022/10/15 16:37:28;;;;;;;;;;;;;;;;;;5071084;28;19939;-78
2022/10/15 16:39:54;;;;;;;;;;;;;;;;;;5070880;28;19908;-78
2022/10/15 16:42:20;;;;;;;;;;;;;;;;;;5069261;28;20262;-77
2022/10/15 16:45:50;;;;;;;;;;;;;;;;;;5103978;27;19974;-77
2022/10/15 16:48:16;;;;;;;;;;;;;;;;;;5071089;28;19916;-77
2022/10/15 16:50:42;;;;;;;;;;;;;;;;;;5070681;28;19909;-79
2022/10/15 16:53:08;;;;;;;;;;;;;;;;;;5071258;28;19909;-77
2022/10/15 16:55:34;;;;;;;;;;;;;;;;;;5071005;28;19996;-77
2022/10/15 16:58:00;;;;;;;;;;;;;;;;;;5070681;28;19996;-77
2022/10/15 17:00:26;;;;;;;;;;;;;;;;;;5070944;28;19948;-77
2022/10/15 17:02:53;;;;;;;;;;;;;;;;;;5070616;28;19916;-77
2022/10/15 17:05:19;;;;;;;;;;;;;;;;;;5070763;28;19921;-78
2022/10/15 17:07:45;;;;;;;;;;;;;;;;;;5070742;28;19916;-78
2022/10/15 17:10:11;;;;;;;;;;;;;;;;;;5070304;28;19939;-78
2022/10/15 17:12:51;;;;;;;;;;;;;;;;;;5103836;27;19913;-78
2022/10/15 17:15:17;;;;;;;;;;;;;;;;;;5071224;28;19920;-78
2022/10/15 17:17:43;;;;;;;;;;;;;;;;;;5069516;28;19908;-80
2022/10/15 17:20:09;;;;;;;;;;;;;;;;;;5070112;28;20372;-78
2022/10/15 17:22:36;;;;;;;;;;;;;;;;;;5071098;28;20365;-78